sensor_id;sensor_type;location;lat;lon;timestamp;P1;durP1;ratioP1;P2;durP2;ratioP2
2896;SDS011;1458;49.728;9.228;2022-07-05T00:00:09;6.60;;;6.60;;
2896;SDS011;1458;49.728;9.228;2022-07-05T00:02:40;6.63;;;6.60;;
2896;SDS011;1458;49.728;9.228;2022-07-05T00:05:09;7.10;;;7.00;;
2896;SDS011;1458;49.728;9.228;2022-07-05T00:07:41;6.93;;;6.83;;
2896;SDS011;1458;49.728;9.228;2022-07-05T00:10:09;7.27;;;7.17;;
2896;SDS011;1458;49.728;9.228;2022-07-05T00:12:37;6.20;;;6.20;;
2896;SDS011;1458;49.728;9.228;2022-07-05T00:15:08;6.30;;;6.30;;
2896;SDS011;1458;49.728;9.228;2022-07-05T00:17:45;6.43;;;6.43;;
2896;SDS011;1458;49.728;9.228;2022-07-05T00:20:13;5.90;;;5.90;;
2896;SDS011;1458;49.728;9.228;2022-07-05T00:22:45;6.37;;;6.37;;
2896;SDS011;1458;49.728;9.228;2022-07-05T00:25:13;6.43;;;6.43;;
2896;SDS011;1458;49.728;9.228;2022-07-05T00:27:49;6.20;;;6.20;;
2896;SDS011;1458;49.728;9.228;2022-07-05T00:30:20;5.70;;;5.70;;
2896;SDS011;1458;49.728;9.228;2022-07-05T00:32:52;5.30;;;5.30;;
2896;SDS011;1458;49.728;9.228;2022-07-05T00:35:23;5.53;;;5.53;;
2896;SDS011;1458;49.728;9.228;2022-07-05T00:37:53;5.60;;;5.60;;
2896;SDS011;1458;49.728;9.228;2022-07-05T00:40:26;5.17;;;5.17;;
2896;SDS011;1458;49.728;9.228;2022-07-05T00:42:54;4.53;;;4.53;;
2896;SDS011;1458;49.728;9.228;2022-07-05T00:45:23;5.30;;;5.30;;
2896;SDS011;1458;49.728;9.228;2022-07-05T00:47:54;5.70;;;5.70;;
2896;SDS011;1458;49.728;9.228;2022-07-05T00:50:22;5.90;;;5.90;;
2896;SDS011;1458;49.728;9.228;2022-07-05T00:52:52;5.70;;;5.70;;
2896;SDS011;1458;49.728;9.228;2022-07-05T00:55:23;5.13;;;5.13;;
2896;SDS011;1458;49.728;9.228;2022-07-05T00:57:51;4.97;;;4.97;;
2896;SDS011;1458;49.728;9.228;2022-07-05T01:00:19;5.53;;;5.53;;
2896;SDS011;1458;49.728;9.228;2022-07-05T01:02:49;4.50;;;4.50;;
2896;SDS011;1458;49.728;9.228;2022-07-05T01:05:21;5.10;;;5.10;;
2896;SDS011;1458;49.728;9.228;2022-07-05T01:07:53;5.50;;;5.50;;
2896;SDS011;1458;49.728;9.228;2022-07-05T01:10:22;5.00;;;5.00;;
2896;SDS011;1458;49.728;9.228;2022-07-05T01:12:51;5.10;;;5.10;;
2896;SDS011;1458;49.728;9.228;2022-07-05T01:15:25;5.13;;;5.13;;
2896;SDS011;1458;49.728;9.228;2022-07-05T01:17:55;5.40;;;5.40;;
2896;SDS011;1458;49.728;9.228;2022-07-05T01:20:36;5.30;;;5.30;;
2896;SDS011;1458;49.728;9.228;2022-07-05T01:23:09;5.60;;;5.60;;
2896;SDS011;1458;49.728;9.228;2022-07-05T01:25:37;5.10;;;5.10;;
2896;SDS011;1458;49.728;9.228;2022-07-05T01:28:11;4.80;;;4.80;;
2896;SDS011;1458;49.728;9.228;2022-07-05T01:30:42;4.90;;;4.90;;
2896;SDS011;1458;49.728;9.228;2022-07-05T01:33:16;4.80;;;4.80;;
2896;SDS011;1458;49.728;9.228;2022-07-05T01:35:47;4.80;;;4.80;;
2896;SDS011;1458;49.728;9.228;2022-07-05T01:38:16;4.60;;;4.60;;
2896;SDS011;1458;49.728;9.228;2022-07-05T01:40:43;4.57;;;4.57;;
2896;SDS011;1458;49.728;9.228;2022-07-05T01:43:11;4.53;;;4.53;;
2896;SDS011;1458;49.728;9.228;2022-07-05T01:45:40;4.30;;;4.30;;
2896;SDS011;1458;49.728;9.228;2022-07-05T01:48:10;4.30;;;4.30;;
2896;SDS011;1458;49.728;9.228;2022-07-05T01:50:41;4.30;;;4.30;;
2896;SDS011;1458;49.728;9.228;2022-07-05T01:53:18;3.90;;;3.90;;
2896;SDS011;1458;49.728;9.228;2022-07-05T01:55:49;3.80;;;3.80;;
2896;SDS011;1458;49.728;9.228;2022-07-05T01:58:17;3.63;;;3.63;;
2896;SDS011;1458;49.728;9.228;2022-07-05T02:00:45;3.30;;;3.30;;
2896;SDS011;1458;49.728;9.228;2022-07-05T02:03:15;3.00;;;3.00;;
2896;SDS011;1458;49.728;9.228;2022-07-05T02:05:43;2.90;;;2.90;;
2896;SDS011;1458;49.728;9.228;2022-07-05T02:08:19;2.50;;;2.50;;
2896;SDS011;1458;49.728;9.228;2022-07-05T02:10:47;2.70;;;2.70;;
2896;SDS011;1458;49.728;9.228;2022-07-05T02:13:15;2.50;;;2.50;;
2896;SDS011;1458;49.728;9.228;2022-07-05T02:15:46;2.60;;;2.60;;
2896;SDS011;1458;49.728;9.228;2022-07-05T02:18:18;2.70;;;2.70;;
2896;SDS011;1458;49.728;9.228;2022-07-05T02:20:49;2.70;;;2.70;;
2896;SDS011;1458;49.728;9.228;2022-07-05T02:23:18;2.80;;;2.80;;
2896;SDS011;1458;49.728;9.228;2022-07-05T02:25:46;2.73;;;2.73;;
2896;SDS011;1458;49.728;9.228;2022-07-05T02:28:16;2.20;;;2.20;;
2896;SDS011;1458;49.728;9.228;2022-07-05T02:30:49;2.10;;;2.10;;
2896;SDS011;1458;49.728;9.228;2022-07-05T02:33:17;1.83;;;1.83;;
2896;SDS011;1458;49.728;9.228;2022-07-05T02:35:46;1.80;;;1.80;;
2896;SDS011;1458;49.728;9.228;2022-07-05T02:38:14;1.77;;;1.77;;
2896;SDS011;1458;49.728;9.228;2022-07-05T02:40:45;1.70;;;1.70;;
2896;SDS011;1458;49.728;9.228;2022-07-05T02:43:13;1.70;;;1.70;;
2896;SDS011;1458;49.728;9.228;2022-07-05T02:45:41;1.90;;;1.90;;
2896;SDS011;1458;49.728;9.228;2022-07-05T02:48:08;1.80;;;1.80;;
2896;SDS011;1458;49.728;9.228;2022-07-05T02:50:36;1.60;;;1.60;;
2896;SDS011;1458;49.728;9.228;2022-07-05T02:53:06;1.90;;;1.90;;
2896;SDS011;1458;49.728;9.228;2022-07-05T02:55:35;1.80;;;1.80;;
2896;SDS011;1458;49.728;9.228;2022-07-05T02:58:05;1.90;;;1.90;;
2896;SDS011;1458;49.728;9.228;2022-07-05T03:00:32;1.90;;;1.90;;
2896;SDS011;1458;49.728;9.228;2022-07-05T03:03:01;1.80;;;1.80;;
2896;SDS011;1458;49.728;9.228;2022-07-05T03:05:31;2.00;;;2.00;;
2896;SDS011;1458;49.728;9.228;2022-07-05T03:08:03;1.60;;;1.60;;
2896;SDS011;1458;49.728;9.228;2022-07-05T03:10:34;1.80;;;1.80;;
2896;SDS011;1458;49.728;9.228;2022-07-05T03:13:05;2.00;;;2.00;;
2896;SDS011;1458;49.728;9.228;2022-07-05T03:15:34;1.90;;;1.90;;
2896;SDS011;1458;49.728;9.228;2022-07-05T03:18:02;1.80;;;1.80;;
2896;SDS011;1458;49.728;9.228;2022-07-05T03:20:32;2.00;;;2.00;;
2896;SDS011;1458;49.728;9.228;2022-07-05T03:23:00;1.70;;;1.70;;
2896;SDS011;1458;49.728;9.228;2022-07-05T03:25:37;2.00;;;2.00;;
2896;SDS011;1458;49.728;9.228;2022-07-05T03:28:06;2.00;;;2.00;;
2896;SDS011;1458;49.728;9.228;2022-07-05T03:30:35;2.00;;;2.00;;
2896;SDS011;1458;49.728;9.228;2022-07-05T03:33:03;2.00;;;2.00;;
2896;SDS011;1458;49.728;9.228;2022-07-05T03:35:32;1.90;;;1.90;;
2896;SDS011;1458;49.728;9.228;2022-07-05T03:38:01;2.00;;;2.00;;
2896;SDS011;1458;49.728;9.228;2022-07-05T03:40:28;2.00;;;2.00;;
2896;SDS011;1458;49.728;9.228;2022-07-05T03:42:57;2.10;;;2.10;;
2896;SDS011;1458;49.728;9.228;2022-07-05T03:45:27;2.10;;;2.10;;
2896;SDS011;1458;49.728;9.228;2022-07-05T03:47:57;2.20;;;2.20;;
2896;SDS011;1458;49.728;9.228;2022-07-05T03:50:26;2.20;;;2.20;;
2896;SDS011;1458;49.728;9.228;2022-07-05T03:52:57;2.20;;;2.20;;
2896;SDS011;1458;49.728;9.228;2022-07-05T03:55:25;2.10;;;2.10;;
2896;SDS011;1458;49.728;9.228;2022-07-05T03:57:53;2.00;;;2.00;;
2896;SDS011;1458;49.728;9.228;2022-07-05T04:00:21;2.27;;;2.27;;
2896;SDS011;1458;49.728;9.228;2022-07-05T04:03:00;1.90;;;1.90;;
2896;SDS011;1458;49.728;9.228;2022-07-05T04:05:31;2.00;;;2.00;;
2896;SDS011;1458;49.728;9.228;2022-07-05T04:07:59;1.90;;;1.90;;
2896;SDS011;1458;49.728;9.228;2022-07-05T04:10:31;1.90;;;1.90;;
2896;SDS011;1458;49.728;9.228;2022-07-05T04:13:00;2.00;;;2.00;;
2896;SDS011;1458;49.728;9.228;2022-07-05T04:15:29;1.77;;;1.77;;
2896;SDS011;1458;49.728;9.228;2022-07-05T04:17:59;1.80;;;1.80;;
2896;SDS011;1458;49.728;9.228;2022-07-05T04:20:31;1.70;;;1.70;;
2896;SDS011;1458;49.728;9.228;2022-07-05T04:23:00;1.70;;;1.70;;
2896;SDS011;1458;49.728;9.228;2022-07-05T04:25:28;2.10;;;2.10;;
2896;SDS011;1458;49.728;9.228;2022-07-05T04:28:09;1.90;;;1.90;;
2896;SDS011;1458;49.728;9.228;2022-07-05T04:30:38;1.80;;;1.80;;
2896;SDS011;1458;49.728;9.228;2022-07-05T04:33:11;2.50;;;2.50;;
2896;SDS011;1458;49.728;9.228;2022-07-05T04:35:40;4.47;;;4.47;;
2896;SDS011;1458;49.728;9.228;2022-07-05T04:38:07;7.77;;;7.67;;
2896;SDS011;1458;49.728;9.228;2022-07-05T04:40:37;9.60;;;9.40;;
2896;SDS011;1458;49.728;9.228;2022-07-05T04:43:06;10.70;;;10.40;;
2896;SDS011;1458;49.728;9.228;2022-07-05T04:45:34;12.20;;;11.80;;
2896;SDS011;1458;49.728;9.228;2022-07-05T04:48:03;13.50;;;13.00;;
2896;SDS011;1458;49.728;9.228;2022-07-05T04:50:34;14.17;;;13.67;;
2896;SDS011;1458;49.728;9.228;2022-07-05T04:53:03;14.70;;;14.10;;
2896;SDS011;1458;49.728;9.228;2022-07-05T04:55:30;14.10;;;13.60;;
2896;SDS011;1458;49.728;9.228;2022-07-05T04:57:58;14.80;;;14.20;;
2896;SDS011;1458;49.728;9.228;2022-07-05T05:00:25;14.80;;;14.20;;
2896;SDS011;1458;49.728;9.228;2022-07-05T05:02:53;14.90;;;14.30;;
2896;SDS011;1458;49.728;9.228;2022-07-05T05:05:20;15.30;;;14.70;;
2896;SDS011;1458;49.728;9.228;2022-07-05T05:07:49;15.50;;;14.90;;
2896;SDS011;1458;49.728;9.228;2022-07-05T05:10:17;15.80;;;15.10;;
2896;SDS011;1458;49.728;9.228;2022-07-05T05:12:44;16.10;;;15.40;;
2896;SDS011;1458;49.728;9.228;2022-07-05T05:15:12;15.43;;;14.83;;
2896;SDS011;1458;49.728;9.228;2022-07-05T05:17:40;15.50;;;14.90;;
2896;SDS011;1458;49.728;9.228;2022-07-05T05:20:10;15.43;;;14.83;;
2896;SDS011;1458;49.728;9.228;2022-07-05T05:22:40;15.77;;;15.07;;
2896;SDS011;1458;49.728;9.228;2022-07-05T05:25:10;15.20;;;14.60;;
2896;SDS011;1458;49.728;9.228;2022-07-05T05:27:40;14.50;;;13.90;;
2896;SDS011;1458;49.728;9.228;2022-07-05T05:30:09;15.40;;;14.80;;
2896;SDS011;1458;49.728;9.228;2022-07-05T05:32:39;15.00;;;14.40;;
2896;SDS011;1458;49.728;9.228;2022-07-05T05:35:06;14.80;;;14.20;;
2896;SDS011;1458;49.728;9.228;2022-07-05T05:37:47;14.20;;;13.70;;
2896;SDS011;1458;49.728;9.228;2022-07-05T05:40:18;14.50;;;14.00;;
2896;SDS011;1458;49.728;9.228;2022-07-05T05:42:46;14.10;;;13.60;;
2896;SDS011;1458;49.728;9.228;2022-07-05T05:45:15;14.73;;;14.13;;
2896;SDS011;1458;49.728;9.228;2022-07-05T05:47:45;13.90;;;13.40;;
2896;SDS011;1458;49.728;9.228;2022-07-05T05:50:17;14.20;;;13.70;;
2896;SDS011;1458;49.728;9.228;2022-07-05T05:52:46;14.03;;;13.53;;
2896;SDS011;1458;49.728;9.228;2022-07-05T05:55:13;14.30;;;13.80;;
2896;SDS011;1458;49.728;9.228;2022-07-05T05:57:42;13.30;;;12.90;;
2896;SDS011;1458;49.728;9.228;2022-07-05T06:00:10;13.70;;;13.20;;
2896;SDS011;1458;49.728;9.228;2022-07-05T06:02:40;14.10;;;13.60;;
2896;SDS011;1458;49.728;9.228;2022-07-05T06:05:08;13.60;;;13.10;;
2896;SDS011;1458;49.728;9.228;2022-07-05T06:07:44;13.80;;;13.30;;
2896;SDS011;1458;49.728;9.228;2022-07-05T06:10:16;13.90;;;13.40;;
2896;SDS011;1458;49.728;9.228;2022-07-05T06:12:48;13.87;;;13.37;;
2896;SDS011;1458;49.728;9.228;2022-07-05T06:15:17;13.30;;;12.80;;
2896;SDS011;1458;49.728;9.228;2022-07-05T06:17:45;14.13;;;13.63;;
2896;SDS011;1458;49.728;9.228;2022-07-05T06:20:13;13.40;;;12.90;;
2896;SDS011;1458;49.728;9.228;2022-07-05T06:22:43;14.03;;;13.53;;
2896;SDS011;1458;49.728;9.228;2022-07-05T06:25:11;13.60;;;13.10;;
2896;SDS011;1458;49.728;9.228;2022-07-05T06:27:39;12.80;;;12.40;;
2896;SDS011;1458;49.728;9.228;2022-07-05T06:30:10;13.27;;;12.87;;
2896;SDS011;1458;49.728;9.228;2022-07-05T06:32:40;13.50;;;13.00;;
2896;SDS011;1458;49.728;9.228;2022-07-05T06:35:10;14.20;;;13.70;;
2896;SDS011;1458;49.728;9.228;2022-07-05T06:37:41;14.00;;;13.50;;
2896;SDS011;1458;49.728;9.228;2022-07-05T06:40:10;13.77;;;13.27;;
2896;SDS011;1458;49.728;9.228;2022-07-05T06:42:40;14.03;;;13.53;;
2896;SDS011;1458;49.728;9.228;2022-07-05T06:45:10;14.20;;;13.70;;
2896;SDS011;1458;49.728;9.228;2022-07-05T06:47:38;14.40;;;13.90;;
2896;SDS011;1458;49.728;9.228;2022-07-05T06:50:06;14.37;;;13.87;;
2896;SDS011;1458;49.728;9.228;2022-07-05T06:52:36;14.20;;;13.70;;
2896;SDS011;1458;49.728;9.228;2022-07-05T06:55:05;14.00;;;13.50;;
2896;SDS011;1458;49.728;9.228;2022-07-05T06:57:33;14.33;;;13.83;;
2896;SDS011;1458;49.728;9.228;2022-07-05T07:00:01;13.93;;;13.43;;
2896;SDS011;1458;49.728;9.228;2022-07-05T07:02:33;14.10;;;13.60;;
2896;SDS011;1458;49.728;9.228;2022-07-05T07:05:01;14.00;;;13.50;;
2896;SDS011;1458;49.728;9.228;2022-07-05T07:07:30;13.90;;;13.40;;
2896;SDS011;1458;49.728;9.228;2022-07-05T07:10:15;13.70;;;13.20;;
2896;SDS011;1458;49.728;9.228;2022-07-05T07:12:43;14.03;;;13.53;;
2896;SDS011;1458;49.728;9.228;2022-07-05T07:15:10;13.90;;;13.40;;
2896;SDS011;1458;49.728;9.228;2022-07-05T07:17:39;14.03;;;13.53;;
2896;SDS011;1458;49.728;9.228;2022-07-05T07:20:07;14.30;;;13.80;;
2896;SDS011;1458;49.728;9.228;2022-07-05T07:22:35;14.10;;;13.60;;
2896;SDS011;1458;49.728;9.228;2022-07-05T07:25:03;14.90;;;14.30;;
2896;SDS011;1458;49.728;9.228;2022-07-05T07:27:40;14.30;;;13.80;;
2896;SDS011;1458;49.728;9.228;2022-07-05T07:30:10;14.37;;;13.83;;
2896;SDS011;1458;49.728;9.228;2022-07-05T07:32:40;14.27;;;13.77;;
2896;SDS011;1458;49.728;9.228;2022-07-05T07:35:08;13.80;;;13.30;;
2896;SDS011;1458;49.728;9.228;2022-07-05T07:37:37;14.80;;;14.20;;
2896;SDS011;1458;49.728;9.228;2022-07-05T07:40:05;14.47;;;13.97;;
2896;SDS011;1458;49.728;9.228;2022-07-05T07:42:33;14.23;;;13.73;;
2896;SDS011;1458;49.728;9.228;2022-07-05T07:45:02;14.40;;;13.80;;
2896;SDS011;1458;49.728;9.228;2022-07-05T07:47:30;14.90;;;14.30;;
2896;SDS011;1458;49.728;9.228;2022-07-05T07:49:59;15.10;;;14.50;;
2896;SDS011;1458;49.728;9.228;2022-07-05T07:52:27;14.70;;;14.10;;
2896;SDS011;1458;49.728;9.228;2022-07-05T07:54:55;14.80;;;14.20;;
2896;SDS011;1458;49.728;9.228;2022-07-05T07:57:23;14.20;;;13.70;;
2896;SDS011;1458;49.728;9.228;2022-07-05T07:59:51;14.63;;;14.13;;
2896;SDS011;1458;49.728;9.228;2022-07-05T08:02:18;14.90;;;14.30;;
2896;SDS011;1458;49.728;9.228;2022-07-05T08:04:48;15.70;;;15.10;;
2896;SDS011;1458;49.728;9.228;2022-07-05T08:07:17;15.10;;;14.50;;
2896;SDS011;1458;49.728;9.228;2022-07-05T08:09:45;15.50;;;14.90;;
2896;SDS011;1458;49.728;9.228;2022-07-05T08:12:13;15.20;;;14.60;;
2896;SDS011;1458;49.728;9.228;2022-07-05T08:14:41;15.20;;;14.60;;
2896;SDS011;1458;49.728;9.228;2022-07-05T08:17:09;15.40;;;14.80;;
2896;SDS011;1458;49.728;9.228;2022-07-05T08:19:38;15.37;;;14.77;;
2896;SDS011;1458;49.728;9.228;2022-07-05T08:22:24;15.10;;;14.50;;
2896;SDS011;1458;49.728;9.228;2022-07-05T08:24:52;15.33;;;14.73;;
2896;SDS011;1458;49.728;9.228;2022-07-05T08:27:20;15.37;;;14.77;;
2896;SDS011;1458;49.728;9.228;2022-07-05T08:29:47;15.53;;;14.93;;
2896;SDS011;1458;49.728;9.228;2022-07-05T08:32:15;15.33;;;14.73;;
2896;SDS011;1458;49.728;9.228;2022-07-05T08:34:43;15.07;;;14.47;;
2896;SDS011;1458;49.728;9.228;2022-07-05T08:37:10;15.30;;;14.70;;
2896;SDS011;1458;49.728;9.228;2022-07-05T08:39:39;15.13;;;14.53;;
2896;SDS011;1458;49.728;9.228;2022-07-05T08:42:07;15.37;;;14.77;;
2896;SDS011;1458;49.728;9.228;2022-07-05T08:44:36;15.00;;;14.40;;
2896;SDS011;1458;49.728;9.228;2022-07-05T08:47:08;15.10;;;14.50;;
2896;SDS011;1458;49.728;9.228;2022-07-05T08:49:37;15.30;;;14.70;;
2896;SDS011;1458;49.728;9.228;2022-07-05T08:52:07;15.30;;;14.70;;
2896;SDS011;1458;49.728;9.228;2022-07-05T08:54:40;14.97;;;14.37;;
2896;SDS011;1458;49.728;9.228;2022-07-05T08:57:07;14.80;;;14.20;;
2896;SDS011;1458;49.728;9.228;2022-07-05T08:59:35;15.10;;;14.50;;
2896;SDS011;1458;49.728;9.228;2022-07-05T09:02:02;15.33;;;14.73;;
2896;SDS011;1458;49.728;9.228;2022-07-05T09:04:31;15.10;;;14.50;;
2896;SDS011;1458;49.728;9.228;2022-07-05T09:07:04;15.30;;;14.70;;
2896;SDS011;1458;49.728;9.228;2022-07-05T09:09:33;15.40;;;14.80;;
2896;SDS011;1458;49.728;9.228;2022-07-05T09:12:09;15.30;;;14.70;;
2896;SDS011;1458;49.728;9.228;2022-07-05T09:14:40;15.57;;;14.97;;
2896;SDS011;1458;49.728;9.228;2022-07-05T09:17:07;15.00;;;14.40;;
2896;SDS011;1458;49.728;9.228;2022-07-05T09:19:35;14.60;;;14.10;;
2896;SDS011;1458;49.728;9.228;2022-07-05T09:22:03;15.10;;;14.50;;
2896;SDS011;1458;49.728;9.228;2022-07-05T09:24:42;15.20;;;14.60;;
2896;SDS011;1458;49.728;9.228;2022-07-05T09:27:12;15.43;;;14.83;;
2896;SDS011;1458;49.728;9.228;2022-07-05T09:29:40;15.70;;;15.10;;
2896;SDS011;1458;49.728;9.228;2022-07-05T09:32:24;15.03;;;14.43;;
2896;SDS011;1458;49.728;9.228;2022-07-05T09:34:56;14.60;;;14.10;;
2896;SDS011;1458;49.728;9.228;2022-07-05T09:37:28;14.80;;;14.30;;
2896;SDS011;1458;49.728;9.228;2022-07-05T09:40:10;15.20;;;14.60;;
2896;SDS011;1458;49.728;9.228;2022-07-05T09:42:39;15.40;;;14.80;;
2896;SDS011;1458;49.728;9.228;2022-07-05T09:45:07;15.00;;;14.40;;
2896;SDS011;1458;49.728;9.228;2022-07-05T09:47:35;15.30;;;14.70;;
2896;SDS011;1458;49.728;9.228;2022-07-05T09:50:03;15.50;;;14.90;;
2896;SDS011;1458;49.728;9.228;2022-07-05T09:52:32;15.30;;;14.70;;
2896;SDS011;1458;49.728;9.228;2022-07-05T09:55:03;15.43;;;14.83;;
2896;SDS011;1458;49.728;9.228;2022-07-05T09:57:32;15.20;;;14.60;;
2896;SDS011;1458;49.728;9.228;2022-07-05T10:00:03;15.20;;;14.60;;
2896;SDS011;1458;49.728;9.228;2022-07-05T10:02:35;15.63;;;15.03;;
2896;SDS011;1458;49.728;9.228;2022-07-05T10:05:08;15.10;;;14.50;;
2896;SDS011;1458;49.728;9.228;2022-07-05T10:07:39;15.57;;;14.97;;
2896;SDS011;1458;49.728;9.228;2022-07-05T10:10:10;15.60;;;15.00;;
2896;SDS011;1458;49.728;9.228;2022-07-05T10:12:40;15.30;;;14.70;;
2896;SDS011;1458;49.728;9.228;2022-07-05T10:15:11;15.43;;;14.83;;
2896;SDS011;1458;49.728;9.228;2022-07-05T10:17:42;15.30;;;14.70;;
2896;SDS011;1458;49.728;9.228;2022-07-05T10:20:15;15.20;;;14.60;;
2896;SDS011;1458;49.728;9.228;2022-07-05T10:22:46;15.20;;;14.60;;
2896;SDS011;1458;49.728;9.228;2022-07-05T10:25:14;15.40;;;14.80;;
2896;SDS011;1458;49.728;9.228;2022-07-05T10:27:42;15.67;;;15.07;;
2896;SDS011;1458;49.728;9.228;2022-07-05T10:30:11;15.77;;;15.07;;
2896;SDS011;1458;49.728;9.228;2022-07-05T10:32:41;16.10;;;15.50;;
2896;SDS011;1458;49.728;9.228;2022-07-05T10:35:09;15.63;;;15.03;;
2896;SDS011;1458;49.728;9.228;2022-07-05T10:37:38;15.33;;;14.73;;
2896;SDS011;1458;49.728;9.228;2022-07-05T10:40:06;15.20;;;14.60;;
2896;SDS011;1458;49.728;9.228;2022-07-05T10:42:36;15.10;;;14.50;;
2896;SDS011;1458;49.728;9.228;2022-07-05T10:45:26;15.50;;;14.90;;
2896;SDS011;1458;49.728;9.228;2022-07-05T10:48:11;15.40;;;14.80;;
2896;SDS011;1458;49.728;9.228;2022-07-05T10:50:47;15.00;;;14.40;;
2896;SDS011;1458;49.728;9.228;2022-07-05T10:53:17;15.00;;;14.40;;
2896;SDS011;1458;49.728;9.228;2022-07-05T10:55:51;14.80;;;14.20;;
2896;SDS011;1458;49.728;9.228;2022-07-05T10:58:25;14.77;;;14.27;;
2896;SDS011;1458;49.728;9.228;2022-07-05T11:04:25;14.50;;;14.00;;
2896;SDS011;1458;49.728;9.228;2022-07-05T11:06:59;15.17;;;14.57;;
2896;SDS011;1458;49.728;9.228;2022-07-05T11:09:27;15.20;;;14.60;;
2896;SDS011;1458;49.728;9.228;2022-07-05T11:12:02;14.90;;;14.30;;
2896;SDS011;1458;49.728;9.228;2022-07-05T11:14:48;15.03;;;14.43;;
2896;SDS011;1458;49.728;9.228;2022-07-05T11:17:21;14.47;;;13.97;;
2896;SDS011;1458;49.728;9.228;2022-07-05T11:19:58;14.50;;;14.00;;
2896;SDS011;1458;49.728;9.228;2022-07-05T11:25:36;15.20;;;14.60;;
2896;SDS011;1458;49.728;9.228;2022-07-05T11:28:07;14.73;;;14.23;;
2896;SDS011;1458;49.728;9.228;2022-07-05T11:30:47;14.77;;;14.27;;
2896;SDS011;1458;49.728;9.228;2022-07-05T11:33:34;15.03;;;14.43;;
2896;SDS011;1458;49.728;9.228;2022-07-05T11:36:06;15.10;;;14.50;;
2896;SDS011;1458;49.728;9.228;2022-07-05T11:39:06;15.00;;;14.40;;
2896;SDS011;1458;49.728;9.228;2022-07-05T11:41:42;15.10;;;14.50;;
2896;SDS011;1458;49.728;9.228;2022-07-05T11:44:11;15.00;;;14.40;;
2896;SDS011;1458;49.728;9.228;2022-07-05T11:46:40;15.50;;;14.90;;
2896;SDS011;1458;49.728;9.228;2022-07-05T11:49:12;15.23;;;14.63;;
2896;SDS011;1458;49.728;9.228;2022-07-05T11:51:57;15.43;;;14.83;;
2896;SDS011;1458;49.728;9.228;2022-07-05T11:54:28;15.63;;;15.03;;
2896;SDS011;1458;49.728;9.228;2022-07-05T11:56:59;15.67;;;15.07;;
2896;SDS011;1458;49.728;9.228;2022-07-05T11:59:27;15.10;;;14.50;;
2896;SDS011;1458;49.728;9.228;2022-07-05T12:04:28;15.00;;;14.40;;
2896;SDS011;1458;49.728;9.228;2022-07-05T12:06:57;15.10;;;14.50;;
2896;SDS011;1458;49.728;9.228;2022-07-05T12:09:25;15.00;;;14.40;;
2896;SDS011;1458;49.728;9.228;2022-07-05T12:12:17;15.37;;;14.77;;
2896;SDS011;1458;49.728;9.228;2022-07-05T12:15:03;15.30;;;14.70;;
2896;SDS011;1458;49.728;9.228;2022-07-05T12:17:33;15.00;;;14.40;;
2896;SDS011;1458;49.728;9.228;2022-07-05T12:20:03;14.97;;;14.37;;
2896;SDS011;1458;49.728;9.228;2022-07-05T12:22:33;15.17;;;14.57;;
2896;SDS011;1458;49.728;9.228;2022-07-05T12:25:02;14.70;;;14.20;;
2896;SDS011;1458;49.728;9.228;2022-07-05T12:27:32;15.10;;;14.50;;
2896;SDS011;1458;49.728;9.228;2022-07-05T12:30:02;15.40;;;14.80;;
2896;SDS011;1458;49.728;9.228;2022-07-05T12:32:32;15.00;;;14.40;;
2896;SDS011;1458;49.728;9.228;2022-07-05T12:35:03;15.50;;;14.90;;
2896;SDS011;1458;49.728;9.228;2022-07-05T12:37:33;15.13;;;14.53;;
2896;SDS011;1458;49.728;9.228;2022-07-05T12:40:04;15.23;;;14.63;;
2896;SDS011;1458;49.728;9.228;2022-07-05T12:42:34;15.70;;;15.10;;
2896;SDS011;1458;49.728;9.228;2022-07-05T12:45:10;15.30;;;14.70;;
2896;SDS011;1458;49.728;9.228;2022-07-05T12:47:49;15.03;;;14.43;;
2896;SDS011;1458;49.728;9.228;2022-07-05T12:50:20;15.50;;;14.90;;
2896;SDS011;1458;49.728;9.228;2022-07-05T12:52:59;15.30;;;14.70;;
2896;SDS011;1458;49.728;9.228;2022-07-05T12:55:57;15.40;;;14.80;;
2896;SDS011;1458;49.728;9.228;2022-07-05T12:58:45;15.13;;;14.53;;
2896;SDS011;1458;49.728;9.228;2022-07-05T13:01:22;15.17;;;14.57;;
2896;SDS011;1458;49.728;9.228;2022-07-05T13:03:58;15.40;;;14.80;;
2896;SDS011;1458;49.728;9.228;2022-07-05T13:09:30;15.10;;;14.50;;
2896;SDS011;1458;49.728;9.228;2022-07-05T13:12:10;15.10;;;14.50;;
2896;SDS011;1458;49.728;9.228;2022-07-05T13:14:39;15.50;;;14.90;;
2896;SDS011;1458;49.728;9.228;2022-07-05T13:17:09;15.03;;;14.43;;
2896;SDS011;1458;49.728;9.228;2022-07-05T13:19:38;15.40;;;14.80;;
2896;SDS011;1458;49.728;9.228;2022-07-05T13:22:08;15.13;;;14.53;;
2896;SDS011;1458;49.728;9.228;2022-07-05T13:24:37;15.20;;;14.63;;
2896;SDS011;1458;49.728;9.228;2022-07-05T13:27:05;15.20;;;14.60;;
2896;SDS011;1458;49.728;9.228;2022-07-05T13:29:34;14.47;;;13.97;;
2896;SDS011;1458;49.728;9.228;2022-07-05T13:32:02;14.70;;;14.20;;
2896;SDS011;1458;49.728;9.228;2022-07-05T13:34:30;14.87;;;14.37;;
2896;SDS011;1458;49.728;9.228;2022-07-05T13:36:59;15.00;;;14.40;;
2896;SDS011;1458;49.728;9.228;2022-07-05T13:39:28;15.00;;;14.40;;
2896;SDS011;1458;49.728;9.228;2022-07-05T13:41:56;14.90;;;14.30;;
2896;SDS011;1458;49.728;9.228;2022-07-05T13:44:24;14.83;;;14.23;;
2896;SDS011;1458;49.728;9.228;2022-07-05T13:46:52;14.80;;;14.20;;
2896;SDS011;1458;49.728;9.228;2022-07-05T13:49:19;14.80;;;14.20;;
2896;SDS011;1458;49.728;9.228;2022-07-05T13:51:47;14.90;;;14.30;;
2896;SDS011;1458;49.728;9.228;2022-07-05T13:54:15;15.03;;;14.43;;
2896;SDS011;1458;49.728;9.228;2022-07-05T13:56:44;15.40;;;14.80;;
2896;SDS011;1458;49.728;9.228;2022-07-05T13:59:12;15.47;;;14.87;;
2896;SDS011;1458;49.728;9.228;2022-07-05T14:01:39;15.60;;;15.00;;
2896;SDS011;1458;49.728;9.228;2022-07-05T14:04:07;15.90;;;15.30;;
2896;SDS011;1458;49.728;9.228;2022-07-05T14:06:34;15.10;;;14.50;;
2896;SDS011;1458;49.728;9.228;2022-07-05T14:09:03;15.50;;;14.90;;
2896;SDS011;1458;49.728;9.228;2022-07-05T14:11:30;15.70;;;15.10;;
2896;SDS011;1458;49.728;9.228;2022-07-05T14:13:59;15.37;;;14.77;;
2896;SDS011;1458;49.728;9.228;2022-07-05T14:16:27;15.50;;;14.90;;
2896;SDS011;1458;49.728;9.228;2022-07-05T14:18:54;14.97;;;14.37;;
2896;SDS011;1458;49.728;9.228;2022-07-05T14:21:22;15.00;;;14.40;;
2896;SDS011;1458;49.728;9.228;2022-07-05T14:23:49;14.70;;;14.10;;
2896;SDS011;1458;49.728;9.228;2022-07-05T14:26:17;14.80;;;14.20;;
2896;SDS011;1458;49.728;9.228;2022-07-05T14:28:44;15.10;;;14.50;;
2896;SDS011;1458;49.728;9.228;2022-07-05T14:31:13;15.10;;;14.50;;
2896;SDS011;1458;49.728;9.228;2022-07-05T14:33:40;14.83;;;14.23;;
2896;SDS011;1458;49.728;9.228;2022-07-05T14:36:08;14.83;;;14.23;;
2896;SDS011;1458;49.728;9.228;2022-07-05T14:38:36;14.60;;;14.10;;
2896;SDS011;1458;49.728;9.228;2022-07-05T14:41:06;14.60;;;14.10;;
2896;SDS011;1458;49.728;9.228;2022-07-05T14:43:34;15.20;;;14.60;;
2896;SDS011;1458;49.728;9.228;2022-07-05T14:46:01;15.20;;;14.60;;
2896;SDS011;1458;49.728;9.228;2022-07-05T14:48:34;15.03;;;14.43;;
2896;SDS011;1458;49.728;9.228;2022-07-05T14:51:05;14.90;;;14.30;;
2896;SDS011;1458;49.728;9.228;2022-07-05T14:53:33;15.20;;;14.60;;
2896;SDS011;1458;49.728;9.228;2022-07-05T14:56:00;15.10;;;14.50;;
2896;SDS011;1458;49.728;9.228;2022-07-05T14:58:31;15.07;;;14.47;;
2896;SDS011;1458;49.728;9.228;2022-07-05T15:00:58;15.10;;;14.50;;
2896;SDS011;1458;49.728;9.228;2022-07-05T15:03:29;15.10;;;14.50;;
2896;SDS011;1458;49.728;9.228;2022-07-05T15:05:58;15.20;;;14.60;;
2896;SDS011;1458;49.728;9.228;2022-07-05T15:08:30;15.00;;;14.40;;
2896;SDS011;1458;49.728;9.228;2022-07-05T15:10:58;15.13;;;14.53;;
2896;SDS011;1458;49.728;9.228;2022-07-05T15:13:25;14.90;;;14.30;;
2896;SDS011;1458;49.728;9.228;2022-07-05T15:15:53;15.60;;;15.00;;
2896;SDS011;1458;49.728;9.228;2022-07-05T15:18:22;15.17;;;14.57;;
2896;SDS011;1458;49.728;9.228;2022-07-05T15:20:49;15.20;;;14.60;;
2896;SDS011;1458;49.728;9.228;2022-07-05T15:23:20;15.30;;;14.70;;
2896;SDS011;1458;49.728;9.228;2022-07-05T15:25:52;14.90;;;14.30;;